createdAt,value
2023-05-19T00:00:01.700Z,99715.98
2023-05-19T00:03:00.075Z,99715.06
2023-05-19T00:05:28.019Z,99720.71
2023-05-19T00:07:59.532Z,99716.05
2023-05-19T00:10:32.854Z,99718.53
2023-05-19T00:13:00.592Z,99721.73
2023-05-19T00:15:28.268Z,99721.66
2023-05-19T00:17:55.589Z,99720.00
2023-05-19T00:20:23.289Z,99719.11
2023-05-19T00:22:50.980Z,99716.55
2023-05-19T00:25:18.140Z,99718.38
2023-05-19T00:27:45.394Z,99715.70
2023-05-19T00:30:13.254Z,99718.67
2023-05-19T00:32:41.277Z,99717.42
2023-05-19T00:35:09.081Z,99717.82
2023-05-19T00:37:36.230Z,99714.67
2023-05-19T00:40:05.722Z,99717.14
2023-05-19T00:42:33.407Z,99714.48
2023-05-19T00:45:00.554Z,99712.79
2023-05-19T00:47:27.909Z,99708.73
2023-05-19T00:49:55.505Z,99706.96
2023-05-19T00:52:23.040Z,99704.77
2023-05-19T00:54:51.654Z,99703.14
2023-05-19T00:57:20.547Z,99705.96
2023-05-19T00:59:48.559Z,99708.95
2023-05-19T01:02:15.944Z,99711.65
2023-05-19T01:04:44.714Z,99715.42
2023-05-19T01:07:12.197Z,99715.61
2023-05-19T01:09:40.396Z,99716.21
2023-05-19T01:12:09.002Z,99711.05
2023-05-19T01:14:36.467Z,99708.95
2023-05-19T01:17:15.521Z,99711.81
2023-05-19T01:19:51.911Z,99713.71
2023-05-19T01:22:36.578Z,99716.06
2023-05-19T01:25:17.272Z,99717.16
2023-05-19T01:27:59.678Z,99715.27
2023-05-19T01:30:43.838Z,99714.29
2023-05-19T01:33:16.500Z,99717.20
2023-05-19T01:35:45.557Z,99713.64
2023-05-19T01:38:17.180Z,99714.80
2023-05-19T01:40:45.865Z,99712.07
2023-05-19T01:43:18.460Z,99714.56
2023-05-19T01:45:46.236Z,99720.33
2023-05-19T01:48:14.194Z,99716.93
2023-05-19T01:50:42.279Z,99717.70
2023-05-19T01:53:10.793Z,99713.96
2023-05-19T01:55:49.228Z,99716.19
2023-05-19T01:58:42.020Z,99721.81
2023-05-19T02:01:12.662Z,99723.36
2023-05-19T02:03:45.947Z,99718.63
2023-05-19T02:06:44.641Z,99721.02
2023-05-19T02:09:21.912Z,99716.92
2023-05-19T02:11:58.097Z,99714.86
2023-05-19T02:14:33.679Z,99714.86
2023-05-19T02:17:04.126Z,99716.05
2023-05-19T02:19:35.308Z,99712.55
2023-05-19T02:22:02.939Z,99709.41
2023-05-19T02:24:30.775Z,99709.82
2023-05-19T02:26:59.607Z,99714.41
2023-05-19T02:29:27.150Z,99714.02
2023-05-19T02:31:54.396Z,99714.32
2023-05-19T02:34:22.894Z,99712.66
2023-05-19T02:36:51.249Z,99713.44
2023-05-19T02:39:18.591Z,99709.92
2023-05-19T02:41:45.764Z,99716.02
2023-05-19T02:44:13.386Z,99718.01
2023-05-19T02:46:40.680Z,99720.92
2023-05-19T02:49:08.117Z,99719.13
2023-05-19T02:51:35.715Z,99719.08
2023-05-19T02:54:03.352Z,99722.06
2023-05-19T02:56:30.532Z,99720.90
2023-05-19T02:58:58.073Z,99720.38
2023-05-19T03:01:25.391Z,99719.56
2023-05-19T03:03:52.700Z,99716.57
2023-05-19T03:06:23.001Z,99716.39
2023-05-19T03:08:50.786Z,99715.27
2023-05-19T03:11:17.936Z,99713.18
2023-05-19T03:13:45.751Z,99711.94
2023-05-19T03:16:13.644Z,99709.45
2023-05-19T03:18:41.379Z,99707.58
2023-05-19T03:21:08.578Z,99710.42
2023-05-19T03:23:36.312Z,99706.79
2023-05-19T03:26:04.779Z,99706.64
2023-05-19T03:28:32.525Z,99710.39
2023-05-19T03:31:02.566Z,99709.09
2023-05-19T03:33:34.315Z,99709.67
2023-05-19T03:36:03.787Z,99708.52
2023-05-19T03:38:34.489Z,99708.98
2023-05-19T03:41:01.629Z,99709.83
2023-05-19T03:43:29.480Z,99705.15
2023-05-19T03:45:59.315Z,99703.96
2023-05-19T03:48:42.649Z,99706.60
2023-05-19T03:51:19.200Z,99706.82
2023-05-19T03:53:48.229Z,99706.14
2023-05-19T03:56:17.683Z,99703.55
2023-05-19T03:58:46.685Z,99704.16
2023-05-19T04:01:15.548Z,99707.48
2023-05-19T04:03:42.785Z,99704.98
2023-05-19T04:06:10.468Z,99705.89
2023-05-19T04:08:39.277Z,99707.84
2023-05-19T04:11:06.526Z,99708.84
2023-05-19T04:13:35.029Z,99708.55
2023-05-19T04:16:03.158Z,99706.86
2023-05-19T04:18:30.359Z,99711.13
2023-05-19T04:20:57.993Z,99711.19
2023-05-19T04:23:26.648Z,99715.77
2023-05-19T04:25:54.849Z,99714.85
2023-05-19T04:28:23.765Z,99712.16
2023-05-19T04:30:51.912Z,99710.25
2023-05-19T04:33:19.676Z,99713.00
2023-05-19T04:35:47.207Z,99711.86
2023-05-19T04:38:18.477Z,99716.27
2023-05-19T04:40:45.687Z,99714.48
2023-05-19T04:43:13.309Z,99713.33
2023-05-19T04:45:42.168Z,99719.94
2023-05-19T04:48:10.230Z,99722.18
2023-05-19T04:50:38.221Z,99720.73
2023-05-19T04:53:06.582Z,99724.13
2023-05-19T04:55:34.356Z,99726.02
2023-05-19T04:58:01.627Z,99729.14
2023-05-19T05:00:29.293Z,99727.55
2023-05-19T05:02:59.698Z,99725.98
2023-05-19T05:05:31.463Z,99724.33
2023-05-19T05:07:58.847Z,99727.35
2023-05-19T05:10:28.228Z,99727.75
2023-05-19T05:12:56.058Z,99726.84
2023-05-19T05:15:24.056Z,99728.16
2023-05-19T05:17:52.062Z,99728.85
2023-05-19T05:20:20.554Z,99729.31
2023-05-19T05:22:48.067Z,99725.76
2023-05-19T05:25:16.236Z,99725.89
2023-05-19T05:27:44.299Z,99726.79
2023-05-19T05:30:12.353Z,99726.48
2023-05-19T05:32:41.916Z,99725.71
2023-05-19T05:35:14.739Z,99723.77
2023-05-19T05:37:42.014Z,99728.23
2023-05-19T05:40:09.778Z,99729.85
2023-05-19T05:42:37.809Z,99730.23
2023-05-19T05:45:07.122Z,99731.83
2023-05-19T05:47:37.716Z,99734.52
2023-05-19T05:50:08.670Z,99737.08
2023-05-19T05:52:37.280Z,99736.68
2023-05-19T05:55:05.356Z,99742.30
2023-05-19T05:57:37.057Z,99741.56
2023-05-19T06:00:07.495Z,99739.63
2023-05-19T06:02:47.059Z,99745.84
2023-05-19T06:05:14.741Z,99744.86
2023-05-19T06:07:43.329Z,99743.34
2023-05-19T06:10:11.841Z,99745.95
2023-05-19T06:12:40.254Z,99748.20
2023-05-19T06:15:08.105Z,99753.95
2023-05-19T06:17:50.488Z,99754.81
2023-05-19T06:20:18.011Z,99750.05
2023-05-19T06:22:45.409Z,99746.08
2023-05-19T06:25:14.509Z,99748.89
2023-05-19T06:27:42.885Z,99746.64
2023-05-19T06:30:10.573Z,99746.13
2023-05-19T06:32:57.602Z,99748.29
2023-05-19T06:35:25.443Z,99750.85
2023-05-19T06:37:53.080Z,99754.77
2023-05-19T06:40:21.859Z,99752.57
2023-05-19T06:42:49.712Z,99753.11
2023-05-19T06:45:23.479Z,99758.17
2023-05-19T06:47:51.525Z,99756.98
2023-05-19T06:50:19.989Z,99761.39
2023-05-19T06:52:50.279Z,99762.05
2023-05-19T06:55:18.973Z,99764.08
2023-05-19T06:57:46.249Z,99763.52
2023-05-19T07:00:17.024Z,99765.45
2023-05-19T07:02:47.320Z,99766.41
2023-05-19T07:05:15.690Z,99767.85
2023-05-19T07:07:45.044Z,99763.44
2023-05-19T07:10:13.981Z,99765.61
2023-05-19T07:12:41.808Z,99759.89
2023-05-19T07:15:09.747Z,99763.63
2023-05-19T07:17:38.319Z,99765.79
2023-05-19T07:20:06.671Z,99764.14
2023-05-19T07:22:38.190Z,99760.09
2023-05-19T07:25:06.988Z,99762.19
2023-05-19T07:27:35.588Z,99753.39
2023-05-19T07:30:03.811Z,99754.27
2023-05-19T07:32:31.504Z,99751.67
2023-05-19T07:34:59.664Z,99755.63
2023-05-19T07:37:27.009Z,99757.48
2023-05-19T07:39:54.705Z,99760.89
2023-05-19T07:42:22.031Z,99756.67
2023-05-19T07:44:51.072Z,99759.79
2023-05-19T07:47:19.512Z,99758.14
2023-05-19T07:49:48.161Z,99757.94
2023-05-19T07:52:19.239Z,99756.76
2023-05-19T07:54:46.768Z,99759.10
2023-05-19T07:57:14.245Z,99761.29
2023-05-19T07:59:41.718Z,99767.81
2023-05-19T08:02:19.353Z,99773.64
2023-05-19T08:04:50.233Z,99776.27
2023-05-19T08:07:18.346Z,99777.86
2023-05-19T08:09:45.837Z,99779.61
2023-05-19T08:12:13.396Z,99780.96
2023-05-19T08:14:40.857Z,99777.61
2023-05-19T08:17:09.483Z,99775.98
2023-05-19T08:19:36.887Z,99773.71
2023-05-19T08:22:04.612Z,99771.09
2023-05-19T08:24:33.602Z,99766.92
2023-05-19T08:27:01.066Z,99770.16
2023-05-19T08:29:31.509Z,99769.33
2023-05-19T08:31:59.981Z,99770.80
2023-05-19T08:34:27.607Z,99769.04
2023-05-19T08:36:59.131Z,99769.29
2023-05-19T08:39:29.321Z,99766.41
2023-05-19T08:41:57.298Z,99767.21
2023-05-19T08:44:24.758Z,99764.12
2023-05-19T08:46:54.792Z,99767.02
2023-05-19T08:49:30.584Z,99760.86
2023-05-19T08:52:52.535Z,99757.92
2023-05-19T08:55:52.951Z,99758.46
2023-05-19T08:58:22.043Z,99760.54
2023-05-19T09:00:50.869Z,99761.33
2023-05-19T09:03:23.763Z,99769.96
2023-05-19T09:05:52.206Z,99769.71
2023-05-19T09:08:19.760Z,99767.55
2023-05-19T09:10:47.127Z,99766.96
2023-05-19T09:13:15.559Z,99766.36
2023-05-19T09:15:45.168Z,99765.70
2023-05-19T09:18:14.587Z,99768.14
2023-05-19T09:20:44.030Z,99770.81
2023-05-19T09:23:16.802Z,99768.96
2023-05-19T09:25:52.401Z,99761.56
2023-05-19T09:28:24.911Z,99757.47
2023-05-19T09:31:00.477Z,99755.13
2023-05-19T09:33:29.337Z,99752.89
2023-05-19T09:35:57.135Z,99747.34
2023-05-19T09:38:26.315Z,99747.92
2023-05-19T09:40:57.746Z,99749.65
2023-05-19T09:43:29.522Z,99753.33
2023-05-19T09:46:03.443Z,99754.17
2023-05-19T09:48:31.301Z,99749.23
2023-05-19T09:51:00.901Z,99745.71
2023-05-19T09:53:31.118Z,99747.29
2023-05-19T09:55:58.453Z,99748.12
2023-05-19T09:58:27.292Z,99745.41
2023-05-19T10:00:55.835Z,99747.86
2023-05-19T10:03:23.641Z,99750.50
2023-05-19T10:05:53.324Z,99750.11
2023-05-19T10:08:22.290Z,99746.27
2023-05-19T10:10:49.928Z,99743.75
2023-05-19T10:13:18.015Z,99742.77
2023-05-19T10:15:58.351Z,99743.76
2023-05-19T10:18:29.024Z,99744.98
2023-05-19T10:20:57.567Z,99748.38
2023-05-19T10:23:25.376Z,99742.96
2023-05-19T10:25:57.812Z,99738.80
2023-05-19T10:28:30.724Z,99741.20
2023-05-19T10:31:01.426Z,99746.27
2023-05-19T10:33:56.663Z,99744.70
2023-05-19T10:36:30.709Z,99742.73
2023-05-19T10:39:16.359Z,99742.83
2023-05-19T10:42:06.903Z,99746.47
2023-05-19T10:44:54.698Z,99745.99
2023-05-19T10:47:25.942Z,99743.33
2023-05-19T10:49:54.129Z,99742.57
2023-05-19T10:52:25.510Z,99744.89
2023-05-19T10:54:54.541Z,99743.21
2023-05-19T10:57:31.791Z,99738.58
2023-05-19T11:00:11.278Z,99733.96
2023-05-19T11:02:45.082Z,99734.27
2023-05-19T11:05:17.781Z,99733.73
2023-05-19T11:08:01.785Z,99731.48
2023-05-19T11:10:29.271Z,99736.38
2023-05-19T11:12:58.317Z,99739.71
2023-05-19T11:15:39.720Z,99736.15
2023-05-19T11:18:33.010Z,99733.45
2023-05-19T11:21:02.141Z,99732.55
2023-05-19T11:23:34.833Z,99728.64
2023-05-19T11:26:03.136Z,99728.29
2023-05-19T11:28:30.941Z,99724.38
2023-05-19T11:30:58.670Z,99717.89
2023-05-19T11:33:29.957Z,99721.27
2023-05-19T11:36:02.513Z,99722.86
2023-05-19T11:38:30.010Z,99720.77
2023-05-19T11:41:07.742Z,99723.61
2023-05-19T11:43:35.281Z,99727.20
2023-05-19T11:46:02.557Z,99728.14
2023-05-19T11:48:30.877Z,99723.14
2023-05-19T11:51:00.747Z,99725.77
2023-05-19T11:53:32.657Z,99725.94
2023-05-19T11:56:04.503Z,99730.11
2023-05-19T11:58:31.931Z,99729.19
2023-05-19T12:01:03.900Z,99724.59
2023-05-19T12:03:32.845Z,99728.02
2023-05-19T12:06:05.724Z,99727.77
2023-05-19T12:08:45.314Z,99727.02
2023-05-19T12:11:13.220Z,99727.89
2023-05-19T12:13:41.055Z,99722.86
2023-05-19T12:16:11.899Z,99724.48
2023-05-19T12:18:40.197Z,99729.73
2023-05-19T12:21:08.026Z,99733.60
2023-05-19T12:23:36.226Z,99732.19
2023-05-19T12:26:14.206Z,99735.46
2023-05-19T12:28:50.954Z,99733.34
2023-05-19T12:31:29.590Z,99730.76
2023-05-19T12:33:57.867Z,99731.47
2023-05-19T12:36:26.286Z,99733.54
2023-05-19T12:39:39.263Z,99731.91
2023-05-19T12:42:10.668Z,99729.14
2023-05-19T12:44:52.277Z,99728.63
2023-05-19T12:47:20.817Z,99722.58
2023-05-19T12:50:04.181Z,99723.48
2023-05-19T12:52:35.913Z,99724.16
2023-05-19T12:55:07.561Z,99722.71
2023-05-19T12:57:36.975Z,99724.08
2023-05-19T13:00:13.717Z,99727.13
2023-05-19T13:03:01.765Z,99725.70
2023-05-19T13:05:39.559Z,99725.66
2023-05-19T13:08:09.601Z,99728.08
2023-05-19T13:10:38.722Z,99724.77
2023-05-19T13:13:08.256Z,99722.58
2023-05-19T13:15:42.287Z,99722.84
2023-05-19T13:18:10.617Z,99723.01
2023-05-19T13:20:40.726Z,99723.35
2023-05-19T13:23:10.526Z,99724.58
2023-05-19T13:25:38.262Z,99721.89
2023-05-19T13:28:06.759Z,99722.39
2023-05-19T13:30:39.668Z,99722.84
2023-05-19T13:33:09.610Z,99719.39
2023-05-19T13:35:37.471Z,99718.60
2023-05-19T13:38:07.530Z,99712.65
2023-05-19T13:40:36.378Z,99716.39
2023-05-19T13:43:06.603Z,99716.65
2023-05-19T13:45:34.289Z,99718.06
2023-05-19T13:48:02.578Z,99719.33
2023-05-19T13:50:30.287Z,99717.61
2023-05-19T13:52:58.268Z,99717.64
2023-05-19T13:55:27.071Z,99714.02
2023-05-19T13:57:54.769Z,99713.45
2023-05-19T14:00:22.825Z,99715.33
2023-05-19T14:02:50.504Z,99720.63
2023-05-19T14:05:18.061Z,99719.67
2023-05-19T14:07:45.987Z,99718.44
2023-05-19T14:10:13.452Z,99714.98
2023-05-19T14:13:04.845Z,99718.12
2023-05-19T14:15:29.257Z,99713.77
2023-05-19T14:17:58.542Z,99710.80
2023-05-19T14:20:27.937Z,99710.77
2023-05-19T14:22:57.478Z,99709.37
2023-05-19T14:25:24.952Z,99709.44
2023-05-19T14:27:53.520Z,99708.95
2023-05-19T14:30:22.323Z,99707.34
2023-05-19T14:32:50.793Z,99710.05
2023-05-19T14:35:18.439Z,99712.28
2023-05-19T14:37:45.917Z,99710.05
2023-05-19T14:40:13.365Z,99707.86
2023-05-19T14:42:40.625Z,99705.54
2023-05-19T14:45:08.872Z,99707.79
2023-05-19T14:47:37.010Z,99709.51
2023-05-19T14:50:05.458Z,99708.92
2023-05-19T14:52:32.791Z,99709.56
2023-05-19T14:55:00.261Z,99710.73
2023-05-19T14:57:27.476Z,99712.90
2023-05-19T14:59:54.931Z,99711.20
2023-05-19T15:02:22.336Z,99711.48
2023-05-19T15:04:52.521Z,99711.45
2023-05-19T15:07:21.942Z,99708.02
2023-05-19T15:09:51.952Z,99704.90
2023-05-19T15:12:27.658Z,99698.47
2023-05-19T15:14:54.965Z,99698.48
2023-05-19T15:17:22.414Z,99701.29
2023-05-19T15:19:50.722Z,99702.00
2023-05-19T15:22:18.719Z,99703.58
2023-05-19T15:24:45.979Z,99704.73
2023-05-19T15:27:13.651Z,99702.23
2023-05-19T15:29:41.551Z,99702.71
2023-05-19T15:32:08.894Z,99700.08
2023-05-19T15:34:36.111Z,99702.73
2023-05-19T15:37:03.858Z,99704.86
2023-05-19T15:39:31.048Z,99705.16
2023-05-19T15:41:58.237Z,99700.60
2023-05-19T15:44:27.095Z,99703.21
2023-05-19T15:46:56.629Z,99701.85
2023-05-19T15:49:24.979Z,99695.83
2023-05-19T15:51:52.757Z,99693.98
2023-05-19T15:54:20.134Z,99695.07
2023-05-19T15:56:47.326Z,99694.48
2023-05-19T15:59:14.964Z,99693.57
2023-05-19T16:01:42.431Z,99692.13
2023-05-19T16:04:09.727Z,99692.75
2023-05-19T16:06:37.251Z,99691.92
2023-05-19T16:09:04.550Z,99693.56
2023-05-19T16:11:31.752Z,99691.41
2023-05-19T16:13:59.317Z,99690.90
2023-05-19T16:16:27.004Z,99691.14
2023-05-19T16:18:54.363Z,99691.20
2023-05-19T16:21:21.905Z,99690.93
2023-05-19T16:23:49.762Z,99689.57
2023-05-19T16:26:17.088Z,99686.80
2023-05-19T16:28:44.465Z,99685.27
2023-05-19T16:31:13.129Z,99681.23
2023-05-19T16:33:40.994Z,99677.89
2023-05-19T16:36:08.531Z,99677.77
2023-05-19T16:38:36.135Z,99675.66
2023-05-19T16:41:05.706Z,99673.98
2023-05-19T16:43:33.559Z,99674.64
2023-05-19T16:46:02.967Z,99674.97
2023-05-19T16:48:30.709Z,99671.70
2023-05-19T16:50:58.995Z,99673.64
2023-05-19T16:53:26.428Z,99673.84
2023-05-19T16:55:54.310Z,99674.70
2023-05-19T16:58:21.774Z,99675.20
2023-05-19T17:00:51.669Z,99677.45
2023-05-19T17:03:30.683Z,99675.35
2023-05-19T17:06:13.013Z,99675.15
2023-05-19T17:08:55.330Z,99677.77
2023-05-19T17:11:41.372Z,99683.02
2023-05-19T17:14:23.661Z,99680.25
2023-05-19T17:17:11.079Z,99679.57
2023-05-19T17:19:54.637Z,99680.27
2023-05-19T17:22:39.708Z,99680.05
2023-05-19T17:25:21.878Z,99681.74
2023-05-19T17:28:07.600Z,99687.09
2023-05-19T17:30:49.634Z,99683.41
2023-05-19T17:33:37.636Z,99683.20
2023-05-19T17:36:20.843Z,99685.92
2023-05-19T17:39:08.705Z,99691.30
2023-05-19T17:41:50.907Z,99694.91
2023-05-19T17:44:37.864Z,99695.50
2023-05-19T17:47:11.311Z,99697.53
2023-05-19T17:49:40.605Z,99692.77
2023-05-19T17:52:08.807Z,99696.37
2023-05-19T17:54:36.260Z,99698.79
2023-05-19T17:57:10.448Z,99698.25
2023-05-19T17:59:38.181Z,99697.33
2023-05-19T18:02:06.821Z,99694.19
2023-05-19T18:04:35.033Z,99689.11
2023-05-19T18:07:04.240Z,99692.09
2023-05-19T18:09:32.970Z,99692.93
2023-05-19T18:12:02.037Z,99698.15
2023-05-19T18:14:29.799Z,99692.88
2023-05-19T18:16:57.827Z,99691.77
2023-05-19T18:19:25.627Z,99690.20
2023-05-19T18:21:53.068Z,99687.55
2023-05-19T18:24:21.278Z,99688.73
2023-05-19T18:26:48.806Z,99689.90
2023-05-19T18:29:16.151Z,99689.39
2023-05-19T18:31:43.886Z,99691.61
2023-05-19T18:34:11.356Z,99690.35
2023-05-19T18:36:38.811Z,99694.17
2023-05-19T18:39:06.617Z,99694.13
2023-05-19T18:41:37.448Z,99693.44
2023-05-19T18:44:07.510Z,99693.36
2023-05-19T18:46:35.483Z,99698.27
2023-05-19T18:49:03.907Z,99701.06
2023-05-19T18:51:33.039Z,99697.67
2023-05-19T18:54:01.435Z,99696.73
2023-05-19T18:56:35.543Z,99694.61
2023-05-19T18:59:03.297Z,99695.68
2023-05-19T19:01:30.626Z,99696.55
2023-05-19T19:03:58.302Z,99699.88
2023-05-19T19:06:26.042Z,99700.23
2023-05-19T19:08:53.415Z,99703.16
2023-05-19T19:11:21.673Z,99708.88
2023-05-19T19:13:50.810Z,99707.98
2023-05-19T19:16:18.033Z,99711.61
2023-05-19T19:18:45.655Z,99715.42
2023-05-19T19:21:13.424Z,99717.70
2023-05-19T19:23:40.631Z,99716.70
2023-05-19T19:26:09.279Z,99717.10
2023-05-19T19:28:37.304Z,99719.85
2023-05-19T19:31:04.498Z,99720.70
2023-05-19T19:33:32.066Z,99720.17
2023-05-19T19:35:59.667Z,99719.45
2023-05-19T19:38:26.940Z,99719.79
2023-05-19T19:40:54.662Z,99717.48
2023-05-19T19:43:22.106Z,99716.06
2023-05-19T19:46:01.436Z,99709.77
2023-05-19T19:48:28.801Z,99708.73
2023-05-19T19:50:57.122Z,99710.60
2023-05-19T19:53:25.164Z,99713.67
2023-05-19T19:56:00.404Z,99715.05
2023-05-19T19:58:28.955Z,99715.44
2023-05-19T20:01:02.698Z,99717.39
2023-05-19T20:03:31.362Z,99720.35
2023-05-19T20:05:59.856Z,99721.94
2023-05-19T20:08:27.424Z,99724.95
2023-05-19T20:10:55.272Z,99727.23
2023-05-19T20:13:23.415Z,99724.06
2023-05-19T20:15:51.031Z,99726.84
2023-05-19T20:18:18.754Z,99727.89
2023-05-19T20:20:46.310Z,99729.49
2023-05-19T20:23:15.738Z,99727.60
2023-05-19T20:25:57.934Z,99726.75
2023-05-19T20:28:30.221Z,99730.18
2023-05-19T20:30:57.990Z,99732.38
2023-05-19T20:33:25.267Z,99732.00
2023-05-19T20:35:53.089Z,99727.13
2023-05-19T20:38:20.392Z,99725.41
2023-05-19T20:40:47.644Z,99725.35
2023-05-19T20:43:15.865Z,99718.35
2023-05-19T20:45:44.247Z,99714.80
2023-05-19T20:48:11.626Z,99715.98
2023-05-19T20:50:39.740Z,99715.83
2023-05-19T20:53:07.145Z,99714.95
2023-05-19T20:55:37.579Z,99710.16
2023-05-19T20:58:05.260Z,99706.96
2023-05-19T21:00:33.360Z,99708.89
2023-05-19T21:03:01.073Z,99708.34
2023-05-19T21:05:28.739Z,99705.91
2023-05-19T21:07:56.333Z,99703.47
2023-05-19T21:10:23.725Z,99705.07
2023-05-19T21:12:51.273Z,99704.28
2023-05-19T21:15:19.300Z,99704.48
2023-05-19T21:17:46.778Z,99703.59
2023-05-19T21:20:14.379Z,99704.40
2023-05-19T21:22:41.803Z,99704.52
2023-05-19T21:25:09.151Z,99707.08
2023-05-19T21:27:36.391Z,99706.15
2023-05-19T21:30:04.339Z,99706.80
2023-05-19T21:32:31.718Z,99705.45
2023-05-19T21:34:59.611Z,99707.92
2023-05-19T21:37:27.453Z,99707.95
2023-05-19T21:39:54.860Z,99707.56
2023-05-19T21:42:23.496Z,99701.95
2023-05-19T21:44:51.041Z,99703.80
2023-05-19T21:47:18.476Z,99703.05
2023-05-19T21:49:46.099Z,99702.42
2023-05-19T21:52:13.490Z,99702.25
2023-05-19T21:54:41.096Z,99701.32
2023-05-19T21:57:10.777Z,99700.96
2023-05-19T21:59:38.481Z,99700.98
2023-05-19T22:02:06.002Z,99704.96
2023-05-19T22:04:33.838Z,99707.25
2023-05-19T22:07:01.280Z,99704.52
2023-05-19T22:09:28.854Z,99701.71
2023-05-19T22:11:56.495Z,99696.14
2023-05-19T22:14:23.769Z,99691.58
2023-05-19T22:16:51.083Z,99692.09
2023-05-19T22:19:19.511Z,99689.17
2023-05-19T22:21:46.856Z,99684.14
2023-05-19T22:24:14.014Z,99678.20
2023-05-19T22:26:42.448Z,99676.78
2023-05-19T22:29:15.042Z,99674.66
2023-05-19T22:31:42.413Z,99680.71
2023-05-19T22:34:12.185Z,99678.41
2023-05-19T22:36:41.446Z,99675.44
2023-05-19T22:39:09.013Z,99673.00
2023-05-19T22:41:36.160Z,99670.84
2023-05-19T22:44:03.852Z,99673.91
2023-05-19T22:46:31.300Z,99673.57
2023-05-19T22:48:58.575Z,99673.02
2023-05-19T22:51:25.989Z,99675.14
2023-05-19T22:53:53.257Z,99672.43
2023-05-19T22:56:20.623Z,99670.54
2023-05-19T22:58:48.541Z,99666.74
2023-05-19T23:01:16.805Z,99668.13
2023-05-19T23:03:44.334Z,99672.45
2023-05-19T23:06:12.035Z,99674.52
2023-05-19T23:08:39.477Z,99670.52
2023-05-19T23:11:07.426Z,99667.44
2023-05-19T23:13:35.122Z,99665.86
2023-05-19T23:16:02.530Z,99664.30
2023-05-19T23:18:29.617Z,99664.49
2023-05-19T23:20:57.165Z,99659.27
2023-05-19T23:23:24.587Z,99660.67
2023-05-19T23:25:51.746Z,99659.14
2023-05-19T23:28:19.554Z,99655.66
2023-05-19T23:30:47.194Z,99655.12
2023-05-19T23:33:14.432Z,99658.95
2023-05-19T23:35:42.838Z,99659.27
2023-05-19T23:38:10.709Z,99657.28
2023-05-19T23:40:38.112Z,99655.47
2023-05-19T23:43:05.922Z,99650.76
2023-05-19T23:45:34.032Z,99649.48
2023-05-19T23:48:01.306Z,99645.64
2023-05-19T23:50:28.718Z,99639.04
2023-05-19T23:52:56.582Z,99636.70
2023-05-19T23:55:23.733Z,99640.86
2023-05-19T23:57:51.130Z,99640.31
